Time;durP1;ratioP1;P1;durP2;ratioP2;P2;SDS_P1;SDS_P2;PMS_P1;PMS_P2;Temp;Humidity;BMP_temperature;BMP_pressure;BME280_temperature;BME280_humidity;BME280_pressure;Samples;Min_cycle;Max_cycle;Signal;HPM_P1;HPM_P2
2021/05/21 00:04:27;;;;;;;19.20;16.03;;;;;;;5.87;77.32;99410.77;517115;1098;116467;-59
2021/05/21 00:14:33;;;;;;;15.90;14.20;;;;;;;5.75;77.22;99404.38;513739;1098;117043;-62
2021/05/21 00:24:38;;;;;;;17.73;13.53;;;;;;;5.66;77.39;99397.85;524678;1098;116891;-61
2021/05/21 00:34:43;;;;;;;14.83;13.33;;;;;;;5.58;77.17;99403.39;518844;1098;116725;-61
2021/05/21 00:44:55;;;;;;;19.17;14.87;;;;;;;5.51;77.69;99391.59;515972;1098;116582;-60
2021/05/21 00:55:00;;;;;;;18.10;15.10;;;;;;;5.46;77.86;99394.41;519720;1098;116660;-61
2021/05/21 01:05:07;;;;;;;22.37;17.10;;;;;;;5.50;78.34;99397.72;514726;1098;116354;-60
2021/05/21 01:15:15;;;;;;;17.67;15.07;;;;;;;5.59;77.65;99380.81;523557;1098;116674;-61
2021/05/21 01:25:20;;;;;;;;;;;;;;;5.77;78.14;99379.09;517426;1098;116404;-60
2021/05/21 01:35:25;;;;;;;18.87;16.47;;;;;;;6.03;78.09;99374.41;516362;1093;103002;-60
2021/05/21 01:45:30;;;;;;;18.60;14.77;;;;;;;6.11;77.73;99376.64;515509;1093;116261;-61
2021/05/21 01:55:35;;;;;;;22.40;19.63;;;;;;;6.14;78.31;99363.48;521750;1098;116850;-61
2021/05/21 02:05:40;;;;;;;19.00;16.88;;;;;;;6.28;77.56;99368.84;516901;1098;116583;-61
2021/05/21 02:15:45;;;;;;;16.27;13.20;;;;;;;6.29;77.41;99370.53;514575;1093;116696;-61
2021/05/21 02:25:50;;;;;;;25.53;17.27;;;;;;;6.29;77.50;99365.31;523286;1098;116817;-60
2021/05/21 02:35:55;;;;;;;18.37;14.60;;;;;;;6.37;77.69;99364.92;511302;1093;116889;-61
2021/05/21 02:46:00;;;;;;;17.87;13.77;;;;;;;6.29;77.74;99359.23;519046;1098;116524;-60
2021/05/21 02:56:06;;;;;;;13.70;11.63;;;;;;;6.30;77.82;99350.53;515563;1098;116210;-62
2021/05/21 03:06:11;;;;;;;15.50;12.48;;;;;;;6.77;78.18;99353.39;524507;1098;116968;-60
2021/05/21 03:16:16;;;;;;;15.40;11.80;;;;;;;7.57;76.70;99356.08;519627;1098;116550;-60
2021/05/21 03:26:21;;;;;;;13.00;10.00;;;;;;;7.89;75.83;99352.58;517187;1098;116026;-61
2021/05/21 03:36:26;;;;;;;15.47;11.20;;;;;;;7.88;75.42;99340.44;528042;1098;116963;-61
2021/05/21 03:46:32;;;;;;;11.73;10.60;;;;;;;8.19;75.33;99339.51;526172;1093;116100;-60
2021/05/21 03:56:37;;;;;;;13.80;10.75;;;;;;;8.52;74.94;99335.05;524172;1092;116636;-60
2021/05/21 04:06:42;;;;;;;11.03;10.03;;;;;;;12.99;75.71;99324.75;516691;1098;116715;-60
2021/05/21 04:16:47;;;;;;;10.13;9.13;;;;;;;21.05;63.37;99311.75;517181;1093;116934;-60
2021/05/21 04:26:52;;;;;;;8.40;7.35;;;;;;;23.07;53.49;99310.59;516768;1093;116862;-61
2021/05/21 04:36:58;;;;;;;9.40;8.17;;;;;;;23.78;51.20;99314.48;517953;1098;116942;-61
2021/05/21 04:47:02;;;;;;;7.10;6.40;;;;;;;29.39;45.20;99290.03;518458;1098;115908;-61
2021/05/21 04:57:08;;;;;;;6.70;6.00;;;;;;;30.71;39.30;99283.72;514848;1098;117235;-60
2021/05/21 05:07:12;;;;;;;6.33;5.87;;;;;;;32.93;36.30;99283.02;520498;1098;116239;-62
2021/05/21 05:17:18;;;;;;;7.57;5.30;;;;;;;37.99;31.29;99283.13;517791;1098;117549;-62
2021/05/21 05:27:23;;;;;;;5.35;4.75;;;;;;;38.78;27.22;99271.02;519480;1098;116924;-61
2021/05/21 05:37:27;;;;;;;5.40;4.98;;;;;;;39.31;25.79;99263.70;526520;1098;116653;-62
2021/05/21 05:47:33;;;;;;;5.48;4.55;;;;;;;39.44;23.52;99253.09;522064;1098;115886;-62
2021/05/21 05:57:37;;;;;;;7.67;4.10;;;;;;;42.40;21.76;99244.61;523567;1098;116266;-60
2021/05/21 06:07:43;;;;;;;4.58;4.28;;;;;;;44.11;19.16;99233.59;523619;1098;116741;-62
2021/05/21 06:17:48;;;;;;;10.73;4.47;;;;;;;44.64;17.86;99230.53;516937;1098;117539;-61
2021/05/21 06:27:53;;;;;;;3.33;3.03;;;;;;;47.10;17.02;99223.98;519954;1098;117173;-66
2021/05/21 06:37:58;;;;;;;5.70;2.88;;;;;;;49.34;15.00;99210.81;514609;1098;116745;-65
2021/05/21 06:48:04;;;;;;;6.68;3.25;;;;;;;51.38;13.64;99199.66;516616;1098;116332;-65
2021/05/21 06:58:09;;;;;;;4.85;4.53;;;;;;;53.53;12.00;99193.08;513284;1098;116821;-65
2021/05/21 07:08:16;;;;;;;5.90;5.33;;;;;;;53.62;11.56;99174.62;513612;1098;177505;-65
2021/05/21 07:18:24;;;;;;;5.90;5.40;;;;;;;53.43;10.93;99175.84;528426;1098;116808;-63
2021/05/21 07:28:30;;;;;;;7.23;6.73;;;;;;;52.58;10.17;99158.45;523430;1098;117010;-65
2021/05/21 07:38:36;;;;;;;6.73;6.38;;;;;;;53.10;10.15;99149.78;523811;1098;117260;-63
2021/05/21 07:48:41;;;;;;;3.90;3.53;;;;;;;51.83;9.69;99138.88;522995;1098;175573;-63
2021/05/21 07:58:45;;;;;;;4.43;1.60;;;;;;;41.48;11.70;99125.55;515921;1098;116718;-60
2021/05/21 08:08:50;;;;;;;2.30;1.00;;;;;;;32.67;15.73;99117.72;516596;1098;116687;-60
2021/05/21 08:18:55;;;;;;;1.20;1.10;;;;;;;28.86;18.83;99116.77;519469;1098;116355;-62
2021/05/21 08:29:00;;;;;;;2.35;1.00;;;;;;;27.48;20.47;99099.84;500183;1092;20002214;-62
2021/05/21 08:39:06;;;;;;;4.13;1.90;;;;;;;25.76;22.68;99106.55;523987;1098;116887;-61
2021/05/21 08:49:11;;;;;;;0.90;0.90;;;;;;;25.35;23.85;99088.77;513840;1092;116927;-61
2021/05/21 08:59:17;;;;;;;10.37;1.80;;;;;;;24.85;24.56;99069.33;513672;1093;116685;-62
2021/05/21 09:09:23;;;;;;;2.43;1.67;;;;;;;23.95;24.57;99072.10;515497;1098;116802;-61
2021/05/21 09:19:29;;;;;;;1.80;0.80;;;;;;;24.31;25.42;99058.47;513732;1098;116392;-61
2021/05/21 09:29:41;;;;;;;2.80;0.90;;;;;;;23.58;26.28;99054.38;511727;1098;117112;-61
2021/05/21 09:40:01;;;;;;;2.00;1.37;;;;;;;23.32;26.82;99045.16;513503;1098;116824;-61
2021/05/21 09:50:11;;;;;;;3.33;1.33;;;;;;;22.39;27.55;99046.72;514042;1098;116324;-61
2021/05/21 10:00:18;;;;;;;3.05;1.10;;;;;;;21.63;28.52;99033.61;518009;1098;115908;-61
2021/05/21 10:10:25;;;;;;;0.80;0.80;;;;;;;21.37;29.83;99017.03;513335;1093;116424;-61
2021/05/21 10:20:30;;;;;;;4.47;0.90;;;;;;;21.55;29.87;98981.11;514550;1092;116645;-61
2021/05/21 10:30:36;;;;;;;1.07;0.97;;;;;;;21.60;29.75;98964.53;513166;1093;118043;-62
2021/05/21 10:40:41;;;;;;;1.30;0.80;;;;;;;21.60;29.67;98965.38;514344;1098;117459;-61
2021/05/21 10:50:47;;;;;;;2.00;1.07;;;;;;;21.64;29.87;98947.11;513232;1098;116803;-61
2021/05/21 11:01:16;;;;;;;3.03;0.98;;;;;;;21.59;29.86;98949.52;514444;1098;116741;-61
2021/05/21 11:11:21;;;;;;;6.80;1.23;;;;;;;21.23;29.83;98925.23;518693;1098;116674;-61
2021/05/21 11:21:27;;;;;;;4.87;1.27;;;;;;;20.76;30.03;98916.50;514003;1098;115966;-66
2021/05/21 11:31:34;;;;;;;2.13;0.60;;;;;;;20.73;30.21;98898.20;513762;1093;116470;-65
2021/05/21 11:41:43;;;;;;;6.73;1.30;;;;;;;20.29;30.64;98889.09;513759;1093;116769;-66
2021/05/21 11:51:55;;;;;;;4.20;2.53;;;;;;;20.70;30.99;98875.38;511823;1098;116010;-65
2021/05/21 12:02:02;;;;;;;2.73;1.33;;;;;;;20.74;30.51;98867.84;513276;1098;116620;-64
2021/05/21 12:12:10;;;;;;;2.83;0.93;;;;;;;20.63;30.45;98857.62;513619;1098;117868;-64
2021/05/21 12:22:14;;;;;;;;;;;;;;;20.95;30.60;98847.66;513315;1098;116337;-65
2021/05/21 12:32:19;;;;;;;2.97;1.10;;;;;;;21.51;30.04;98844.44;514239;1098;103235;-64
2021/05/21 12:42:24;;;;;;;8.45;2.78;;;;;;;22.01;29.29;98834.91;511607;1098;117895;-63
2021/05/21 12:52:29;;;;;;;4.95;1.20;;;;;;;21.76;29.17;98822.77;513482;1098;116225;-67
2021/05/21 13:02:36;;;;;;;6.50;0.70;;;;;;;21.97;28.72;98821.09;513313;1093;117240;-64
2021/05/21 13:12:43;;;;;;;1.57;0.90;;;;;;;21.84;28.38;98813.80;513198;1098;116640;-66
2021/05/21 13:22:52;;;;;;;0.50;0.50;;;;;;;21.61;28.82;98776.54;513452;1098;118079;-65
2021/05/21 13:32:58;;;;;;;0.80;0.80;;;;;;;21.68;28.75;98748.90;512626;1098;117642;-65
2021/05/21 13:43:03;;;;;;;1.83;0.60;;;;;;;21.35;29.33;98749.36;512906;1092;117641;-66
2021/05/21 13:53:09;;;;;;;3.75;1.05;;;;;;;21.56;29.88;98745.90;512676;1093;117677;-63
2021/05/21 14:03:14;;;;;;;2.05;1.08;;;;;;;21.18;30.40;98753.30;511848;1093;116941;-61
2021/05/21 14:13:19;;;;;;;1.73;0.77;;;;;;;21.44;30.31;98728.73;513645;1098;116174;-62
2021/05/21 14:23:24;;;;;;;3.30;0.70;;;;;;;21.39;29.62;98723.11;513984;1098;116479;-61
2021/05/21 14:33:35;;;;;;;3.73;0.98;;;;;;;21.42;29.68;98710.22;514429;1097;116804;-61
2021/05/21 14:43:40;;;;;;;1.30;0.63;;;;;;;21.18;29.71;98700.75;518240;1098;117585;-64
2021/05/21 14:53:45;;;;;;;2.17;0.47;;;;;;;21.33;29.79;98700.67;517598;1098;116275;-63
2021/05/21 15:03:52;;;;;;;4.57;0.50;;;;;;;21.11;30.28;98670.48;517741;1098;118907;-61
2021/05/21 15:13:59;;;;;;;1.00;0.50;;;;;;;20.92;30.54;98655.92;519756;1093;118132;-64
2021/05/21 15:24:17;;;;;;;2.13;0.47;;;;;;;20.86;31.28;98646.83;516182;1098;116915;-65
2021/05/21 15:34:24;;;;;;;2.10;0.50;;;;;;;20.50;31.77;98651.09;516669;1093;116853;-61
2021/05/21 15:54:58;;;;;;;1.80;0.70;;;;;;;20.18;32.96;98631.00;520433;1098;117666;-63
2021/05/21 16:05:03;;;;;;;1.83;0.70;;;;;;;19.89;33.42;98628.11;513253;1098;116368;-62
2021/05/21 16:15:12;;;;;;;0.83;0.60;;;;;;;19.61;34.52;98626.04;516582;1098;168233;-62
2021/05/21 16:25:17;;;;;;;3.07;0.63;;;;;;;19.35;35.03;98627.27;512035;1098;116125;-62
2021/05/21 16:35:23;;;;;;;3.67;0.80;;;;;;;19.24;35.41;98627.69;512614;1098;116377;-68
2021/05/21 16:45:28;;;;;;;5.73;1.07;;;;;;;19.01;35.88;98636.50;512785;1093;117738;-65
2021/05/21 16:55:34;;;;;;;1.27;0.53;;;;;;;18.70;35.64;98616.88;486688;1098;10062235;-63
2021/05/21 17:05:39;;;;;;;1.50;0.60;;;;;;;18.53;35.96;98610.02;519866;1098;116335;-65
2021/05/21 17:15:48;;;;;;;1.63;1.17;;;;;;;18.14;36.73;98604.52;514888;1098;116232;-65
2021/05/21 17:46:45;;;;;;;1.30;1.13;;;;;;;17.21;38.32;98586.25;515126;1098;115843;-60
2021/05/21 17:57:14;;;;;;;;;;;;;;;16.93;38.94;98583.88;515025;1098;115427;-64
2021/05/21 18:07:28;;;;;;;1.17;1.00;;;;;;;16.62;39.41;98589.80;516726;1098;102552;-62
2021/05/21 19:09:49;;;;;;;2.20;1.60;;;;;;;15.41;43.00;98591.50;516183;1098;116621;-62
2021/05/21 19:19:58;;;;;;;1.70;1.60;;;;;;;15.27;43.42;98593.72;515522;1098;116832;-62
2021/05/21 19:30:11;;;;;;;4.03;1.60;;;;;;;15.20;43.99;98583.91;515270;1093;116823;-61
2021/05/21 19:40:29;;;;;;;1.60;1.00;;;;;;;15.10;44.25;98576.05;515007;1098;115647;-62
2021/05/21 20:21:37;;;;;;;1.57;0.93;;;;;;;15.00;43.73;98578.78;515463;1098;116363;-63
2021/05/21 20:32:09;;;;;;;4.60;0.80;;;;;;;14.88;43.24;98599.31;515848;1093;117233;-64
2021/05/21 20:42:27;;;;;;;3.18;0.78;;;;;;;14.89;42.44;98611.58;515871;1098;116236;-63
2021/05/21 21:03:20;;;;;;;1.50;0.50;;;;;;;14.68;43.89;98622.38;515026;1098;116223;-62
2021/05/21 21:13:31;;;;;;;3.33;0.83;;;;;;;14.60;44.75;98644.25;515465;1098;115851;-63
2021/05/21 21:23:59;;;;;;;2.15;0.60;;;;;;;14.43;45.35;98657.28;514758;1098;117191;-62
2021/05/21 22:05:39;;;;;;;0.67;0.60;;;;;;;13.02;54.49;98644.58;514721;1098;117786;-62
2021/05/21 22:16:23;;;;;;;2.83;0.57;;;;;;;12.66;56.39;98611.83;515508;1098;116119;-61
2021/05/21 22:26:28;;;;;;;0.80;0.80;;;;;;;12.26;57.54;98609.08;514738;1098;116748;-62
2021/05/21 22:36:36;;;;;;;3.53;2.73;;;;;;;12.00;58.92;98614.77;515468;1098;115657;-61
2021/05/21 22:46:41;;;;;;;2.20;2.00;;;;;;;11.57;60.39;98644.69;516050;1098;115831;-61
2021/05/21 22:56:47;;;;;;;1.55;1.10;;;;;;;11.21;61.63;98677.34;515482;1097;116632;-62
2021/05/21 23:06:52;;;;;;;4.43;3.33;;;;;;;10.89;62.34;98670.27;515471;1098;116110;-63
2021/05/21 23:16:57;;;;;;;6.20;3.10;;;;;;;10.67;63.18;98655.41;515709;1093;116282;-62
2021/05/21 23:27:02;;;;;;;7.30;4.70;;;;;;;10.48;63.71;98656.05;515522;1098;115878;-61
2021/05/21 23:37:07;;;;;;;2.50;1.60;;;;;;;10.33;64.68;98621.30;515789;1094;116427;-62
2021/05/21 23:47:12;;;;;;;2.70;1.27;;;;;;;10.25;65.05;98587.81;514509;1093;116404;-62
2021/05/21 23:57:18;;;;;;;2.67;1.87;;;;;;;10.21;65.50;98597.70;515903;1092;116597;-64
